sensor_id;sensor_type;location;lat;lon;timestamp;P1;durP1;ratioP1;P2;durP2;ratioP2
71475;SDS011;59286;59.274;17.974;2023-07-29T00:01:50;2.38;;;1.80;;
71475;SDS011;59286;59.274;17.974;2023-07-29T00:04:16;2.78;;;1.63;;
71475;SDS011;59286;59.274;17.974;2023-07-29T00:06:42;5.45;;;2.10;;
71475;SDS011;59286;59.274;17.974;2023-07-29T00:09:07;3.63;;;2.30;;
71475;SDS011;59286;59.274;17.974;2023-07-29T00:11:33;3.88;;;2.30;;
71475;SDS011;59286;59.274;17.974;2023-07-29T00:13:59;1.70;;;1.60;;
71475;SDS011;59286;59.274;17.974;2023-07-29T00:16:25;3.05;;;1.50;;
71475;SDS011;59286;59.274;17.974;2023-07-29T00:18:51;3.75;;;2.00;;
71475;SDS011;59286;59.274;17.974;2023-07-29T00:21:16;3.80;;;2.10;;
71475;SDS011;59286;59.274;17.974;2023-07-29T00:23:41;3.38;;;2.10;;
71475;SDS011;59286;59.274;17.974;2023-07-29T00:26:07;3.70;;;1.35;;
71475;SDS011;59286;59.274;17.974;2023-07-29T00:28:32;4.47;;;1.75;;
71475;SDS011;59286;59.274;17.974;2023-07-29T00:30:57;3.08;;;1.80;;
71475;SDS011;59286;59.274;17.974;2023-07-29T00:33:23;4.18;;;2.10;;
71475;SDS011;59286;59.274;17.974;2023-07-29T00:35:48;3.40;;;2.03;;
71475;SDS011;59286;59.274;17.974;2023-07-29T00:38:14;2.33;;;1.63;;
71475;SDS011;59286;59.274;17.974;2023-07-29T00:40:39;2.05;;;1.70;;
71475;SDS011;59286;59.274;17.974;2023-07-29T00:43:04;2.13;;;1.77;;
71475;SDS011;59286;59.274;17.974;2023-07-29T00:45:30;3.10;;;2.00;;
71475;SDS011;59286;59.274;17.974;2023-07-29T00:47:57;3.10;;;1.85;;
71475;SDS011;59286;59.274;17.974;2023-07-29T00:50:23;2.45;;;1.50;;
71475;SDS011;59286;59.274;17.974;2023-07-29T00:52:49;5.97;;;2.50;;
71475;SDS011;59286;59.274;17.974;2023-07-29T00:55:15;2.92;;;1.90;;
71475;SDS011;59286;59.274;17.974;2023-07-29T00:57:41;1.60;;;1.50;;
71475;SDS011;59286;59.274;17.974;2023-07-29T01:00:07;2.88;;;2.25;;
71475;SDS011;59286;59.274;17.974;2023-07-29T01:02:33;1.63;;;1.48;;
71475;SDS011;59286;59.274;17.974;2023-07-29T01:05:00;2.05;;;1.75;;
71475;SDS011;59286;59.274;17.974;2023-07-29T01:07:29;4.38;;;2.78;;
71475;SDS011;59286;59.274;17.974;2023-07-29T01:10:10;2.10;;;1.88;;
71475;SDS011;59286;59.274;17.974;2023-07-29T01:12:47;7.05;;;3.10;;
71475;SDS011;59286;59.274;17.974;2023-07-29T01:17:48;3.22;;;2.28;;
71475;SDS011;59286;59.274;17.974;2023-07-29T01:20:17;3.08;;;2.10;;
71475;SDS011;59286;59.274;17.974;2023-07-29T01:22:45;3.10;;;2.30;;
71475;SDS011;59286;59.274;17.974;2023-07-29T01:25:12;2.60;;;2.40;;
71475;SDS011;59286;59.274;17.974;2023-07-29T01:27:38;5.97;;;2.78;;
71475;SDS011;59286;59.274;17.974;2023-07-29T01:30:04;3.60;;;2.33;;
71475;SDS011;59286;59.274;17.974;2023-07-29T01:32:35;3.13;;;2.45;;
71475;SDS011;59286;59.274;17.974;2023-07-29T01:35:10;2.47;;;2.20;;
71475;SDS011;59286;59.274;17.974;2023-07-29T01:37:42;3.08;;;1.80;;
71475;SDS011;59286;59.274;17.974;2023-07-29T01:40:11;2.47;;;1.83;;
71475;SDS011;59286;59.274;17.974;2023-07-29T01:42:37;4.32;;;2.00;;
71475;SDS011;59286;59.274;17.974;2023-07-29T01:45:03;3.25;;;1.83;;
71475;SDS011;59286;59.274;17.974;2023-07-29T01:47:29;3.38;;;2.20;;
71475;SDS011;59286;59.274;17.974;2023-07-29T01:49:55;2.20;;;2.00;;
71475;SDS011;59286;59.274;17.974;2023-07-29T01:52:21;2.55;;;2.20;;
71475;SDS011;59286;59.274;17.974;2023-07-29T01:54:46;2.95;;;2.20;;
71475;SDS011;59286;59.274;17.974;2023-07-29T01:57:11;3.25;;;2.80;;
71475;SDS011;59286;59.274;17.974;2023-07-29T01:59:37;2.15;;;1.95;;
71475;SDS011;59286;59.274;17.974;2023-07-29T02:02:02;2.15;;;1.95;;
71475;SDS011;59286;59.274;17.974;2023-07-29T02:04:27;4.60;;;1.85;;
71475;SDS011;59286;59.274;17.974;2023-07-29T02:06:53;1.63;;;1.50;;
71475;SDS011;59286;59.274;17.974;2023-07-29T02:09:18;5.93;;;2.42;;
71475;SDS011;59286;59.274;17.974;2023-07-29T02:11:44;2.88;;;2.55;;
71475;SDS011;59286;59.274;17.974;2023-07-29T02:14:09;2.17;;;1.95;;
71475;SDS011;59286;59.274;17.974;2023-07-29T02:16:34;2.35;;;1.92;;
71475;SDS011;59286;59.274;17.974;2023-07-29T02:19:00;2.72;;;2.38;;
71475;SDS011;59286;59.274;17.974;2023-07-29T02:21:25;2.95;;;2.40;;
71475;SDS011;59286;59.274;17.974;2023-07-29T02:23:50;3.38;;;2.22;;
71475;SDS011;59286;59.274;17.974;2023-07-29T02:26:16;5.10;;;2.67;;
71475;SDS011;59286;59.274;17.974;2023-07-29T02:28:42;3.55;;;2.38;;
71475;SDS011;59286;59.274;17.974;2023-07-29T02:31:23;3.70;;;2.00;;
71475;SDS011;59286;59.274;17.974;2023-07-29T02:33:49;3.17;;;2.20;;
71475;SDS011;59286;59.274;17.974;2023-07-29T02:36:15;2.67;;;2.13;;
71475;SDS011;59286;59.274;17.974;2023-07-29T02:38:41;5.05;;;2.20;;
71475;SDS011;59286;59.274;17.974;2023-07-29T02:41:08;2.63;;;1.88;;
71475;SDS011;59286;59.274;17.974;2023-07-29T02:43:34;4.30;;;2.17;;
71475;SDS011;59286;59.274;17.974;2023-07-29T02:46:00;3.03;;;2.40;;
71475;SDS011;59286;59.274;17.974;2023-07-29T02:48:27;2.78;;;1.65;;
71475;SDS011;59286;59.274;17.974;2023-07-29T02:50:53;2.65;;;2.00;;
71475;SDS011;59286;59.274;17.974;2023-07-29T02:53:18;4.45;;;2.25;;
71475;SDS011;59286;59.274;17.974;2023-07-29T02:55:44;1.67;;;1.58;;
71475;SDS011;59286;59.274;17.974;2023-07-29T02:58:09;3.60;;;2.20;;
71475;SDS011;59286;59.274;17.974;2023-07-29T03:00:34;2.75;;;2.03;;
71475;SDS011;59286;59.274;17.974;2023-07-29T03:03:00;5.38;;;2.30;;
71475;SDS011;59286;59.274;17.974;2023-07-29T03:05:29;7.40;;;2.00;;
71475;SDS011;59286;59.274;17.974;2023-07-29T03:07:54;2.42;;;1.90;;
71475;SDS011;59286;59.274;17.974;2023-07-29T03:10:19;1.85;;;1.70;;
71475;SDS011;59286;59.274;17.974;2023-07-29T03:12:45;1.48;;;1.35;;
71475;SDS011;59286;59.274;17.974;2023-07-29T03:15:11;1.92;;;1.60;;
71475;SDS011;59286;59.274;17.974;2023-07-29T03:17:37;2.92;;;2.10;;
71475;SDS011;59286;59.274;17.974;2023-07-29T03:20:02;2.08;;;1.65;;
71475;SDS011;59286;59.274;17.974;2023-07-29T03:22:28;2.50;;;2.05;;
71475;SDS011;59286;59.274;17.974;2023-07-29T03:24:53;4.13;;;1.50;;
71475;SDS011;59286;59.274;17.974;2023-07-29T03:27:19;3.67;;;1.63;;
71475;SDS011;59286;59.274;17.974;2023-07-29T03:29:44;1.73;;;1.40;;
71475;SDS011;59286;59.274;17.974;2023-07-29T03:32:10;3.33;;;1.60;;
71475;SDS011;59286;59.274;17.974;2023-07-29T03:34:36;1.77;;;1.35;;
71475;SDS011;59286;59.274;17.974;2023-07-29T03:37:01;1.60;;;1.33;;
71475;SDS011;59286;59.274;17.974;2023-07-29T03:39:27;2.10;;;1.35;;
71475;SDS011;59286;59.274;17.974;2023-07-29T03:41:52;2.58;;;1.58;;
71475;SDS011;59286;59.274;17.974;2023-07-29T03:44:17;2.35;;;1.40;;
71475;SDS011;59286;59.274;17.974;2023-07-29T03:46:44;1.58;;;1.48;;
71475;SDS011;59286;59.274;17.974;2023-07-29T03:49:10;2.38;;;1.10;;
71475;SDS011;59286;59.274;17.974;2023-07-29T03:51:35;1.65;;;1.00;;
71475;SDS011;59286;59.274;17.974;2023-07-29T03:54:01;1.30;;;1.20;;
71475;SDS011;59286;59.274;17.974;2023-07-29T03:56:26;2.30;;;1.20;;
71475;SDS011;59286;59.274;17.974;2023-07-29T03:58:52;2.83;;;1.40;;
71475;SDS011;59286;59.274;17.974;2023-07-29T04:01:17;2.67;;;1.25;;
71475;SDS011;59286;59.274;17.974;2023-07-29T04:03:44;1.58;;;1.13;;
71475;SDS011;59286;59.274;17.974;2023-07-29T04:06:11;1.70;;;1.05;;
71475;SDS011;59286;59.274;17.974;2023-07-29T04:08:36;1.30;;;1.20;;
71475;SDS011;59286;59.274;17.974;2023-07-29T04:11:01;1.60;;;1.42;;
71475;SDS011;59286;59.274;17.974;2023-07-29T04:13:27;1.65;;;1.30;;
71475;SDS011;59286;59.274;17.974;2023-07-29T04:15:52;1.35;;;1.20;;
71475;SDS011;59286;59.274;17.974;2023-07-29T04:18:17;1.70;;;1.33;;
71475;SDS011;59286;59.274;17.974;2023-07-29T04:20:43;1.20;;;1.10;;
71475;SDS011;59286;59.274;17.974;2023-07-29T04:23:08;7.30;;;1.65;;
71475;SDS011;59286;59.274;17.974;2023-07-29T04:25:34;2.33;;;1.30;;
71475;SDS011;59286;59.274;17.974;2023-07-29T04:27:59;1.70;;;1.60;;
71475;SDS011;59286;59.274;17.974;2023-07-29T04:30:24;3.22;;;1.30;;
71475;SDS011;59286;59.274;17.974;2023-07-29T04:32:50;2.22;;;1.48;;
71475;SDS011;59286;59.274;17.974;2023-07-29T04:35:15;2.03;;;1.25;;
71475;SDS011;59286;59.274;17.974;2023-07-29T04:37:40;2.70;;;1.25;;
71475;SDS011;59286;59.274;17.974;2023-07-29T04:40:06;1.98;;;1.13;;
71475;SDS011;59286;59.274;17.974;2023-07-29T04:42:32;2.47;;;1.23;;
71475;SDS011;59286;59.274;17.974;2023-07-29T04:44:57;2.92;;;1.60;;
71475;SDS011;59286;59.274;17.974;2023-07-29T04:47:23;2.05;;;1.20;;
71475;SDS011;59286;59.274;17.974;2023-07-29T04:49:48;3.00;;;1.35;;
71475;SDS011;59286;59.274;17.974;2023-07-29T04:52:13;3.28;;;1.33;;
71475;SDS011;59286;59.274;17.974;2023-07-29T04:54:40;4.80;;;1.40;;
71475;SDS011;59286;59.274;17.974;2023-07-29T04:57:05;1.67;;;1.17;;
71475;SDS011;59286;59.274;17.974;2023-07-29T04:59:31;1.58;;;1.13;;
71475;SDS011;59286;59.274;17.974;2023-07-29T05:01:56;1.55;;;1.10;;
71475;SDS011;59286;59.274;17.974;2023-07-29T05:04:21;1.35;;;1.10;;
71475;SDS011;59286;59.274;17.974;2023-07-29T05:06:47;2.83;;;1.00;;
71475;SDS011;59286;59.274;17.974;2023-07-29T05:09:17;2.08;;;1.15;;
71475;SDS011;59286;59.274;17.974;2023-07-29T05:11:43;1.48;;;1.02;;
71475;SDS011;59286;59.274;17.974;2023-07-29T05:14:15;1.23;;;1.10;;
71475;SDS011;59286;59.274;17.974;2023-07-29T05:16:42;2.60;;;1.30;;
71475;SDS011;59286;59.274;17.974;2023-07-29T05:19:08;4.13;;;1.10;;
71475;SDS011;59286;59.274;17.974;2023-07-29T05:21:33;3.00;;;1.20;;
71475;SDS011;59286;59.274;17.974;2023-07-29T05:23:59;1.63;;;1.20;;
71475;SDS011;59286;59.274;17.974;2023-07-29T05:26:24;3.05;;;1.08;;
71475;SDS011;59286;59.274;17.974;2023-07-29T05:28:50;1.63;;;1.10;;
71475;SDS011;59286;59.274;17.974;2023-07-29T05:31:15;1.10;;;0.80;;
71475;SDS011;59286;59.274;17.974;2023-07-29T05:33:41;0.98;;;0.80;;
71475;SDS011;59286;59.274;17.974;2023-07-29T05:36:06;1.80;;;1.10;;
71475;SDS011;59286;59.274;17.974;2023-07-29T05:38:31;2.22;;;1.02;;
71475;SDS011;59286;59.274;17.974;2023-07-29T05:40:57;1.05;;;0.88;;
71475;SDS011;59286;59.274;17.974;2023-07-29T05:43:24;6.57;;;1.13;;
71475;SDS011;59286;59.274;17.974;2023-07-29T05:45:49;1.42;;;1.00;;
71475;SDS011;59286;59.274;17.974;2023-07-29T05:48:15;1.85;;;0.88;;
71475;SDS011;59286;59.274;17.974;2023-07-29T05:50:41;3.85;;;1.48;;
71475;SDS011;59286;59.274;17.974;2023-07-29T05:53:06;3.42;;;1.00;;
71475;SDS011;59286;59.274;17.974;2023-07-29T05:55:31;1.45;;;0.95;;
71475;SDS011;59286;59.274;17.974;2023-07-29T05:57:56;1.38;;;0.80;;
71475;SDS011;59286;59.274;17.974;2023-07-29T06:00:22;1.23;;;0.80;;
71475;SDS011;59286;59.274;17.974;2023-07-29T06:02:48;1.20;;;0.82;;
71475;SDS011;59286;59.274;17.974;2023-07-29T06:05:13;1.58;;;0.80;;
71475;SDS011;59286;59.274;17.974;2023-07-29T06:07:38;1.27;;;0.95;;
71475;SDS011;59286;59.274;17.974;2023-07-29T06:10:09;1.42;;;1.05;;
71475;SDS011;59286;59.274;17.974;2023-07-29T06:12:36;2.58;;;1.00;;
71475;SDS011;59286;59.274;17.974;2023-07-29T06:15:02;1.77;;;1.00;;
71475;SDS011;59286;59.274;17.974;2023-07-29T06:17:28;1.40;;;0.80;;
71475;SDS011;59286;59.274;17.974;2023-07-29T06:19:53;2.05;;;0.77;;
71475;SDS011;59286;59.274;17.974;2023-07-29T06:22:18;1.85;;;0.70;;
71475;SDS011;59286;59.274;17.974;2023-07-29T06:24:44;3.65;;;1.00;;
71475;SDS011;59286;59.274;17.974;2023-07-29T06:27:09;3.25;;;1.10;;
71475;SDS011;59286;59.274;17.974;2023-07-29T06:29:34;3.38;;;1.00;;
71475;SDS011;59286;59.274;17.974;2023-07-29T06:32:00;1.35;;;0.80;;
71475;SDS011;59286;59.274;17.974;2023-07-29T06:34:25;2.40;;;0.90;;
71475;SDS011;59286;59.274;17.974;2023-07-29T06:36:51;3.03;;;0.93;;
71475;SDS011;59286;59.274;17.974;2023-07-29T06:39:16;2.92;;;0.80;;
71475;SDS011;59286;59.274;17.974;2023-07-29T06:41:41;1.98;;;0.93;;
71475;SDS011;59286;59.274;17.974;2023-07-29T06:44:07;1.98;;;0.70;;
71475;SDS011;59286;59.274;17.974;2023-07-29T06:46:32;1.48;;;0.90;;
71475;SDS011;59286;59.274;17.974;2023-07-29T06:48:57;3.17;;;0.95;;
71475;SDS011;59286;59.274;17.974;2023-07-29T06:51:23;2.53;;;0.90;;
71475;SDS011;59286;59.274;17.974;2023-07-29T06:53:48;2.80;;;1.25;;
71475;SDS011;59286;59.274;17.974;2023-07-29T06:56:13;3.63;;;1.10;;
71475;SDS011;59286;59.274;17.974;2023-07-29T06:58:39;1.92;;;0.90;;
71475;SDS011;59286;59.274;17.974;2023-07-29T07:01:04;1.77;;;0.80;;
71475;SDS011;59286;59.274;17.974;2023-07-29T07:03:29;3.03;;;0.80;;
71475;SDS011;59286;59.274;17.974;2023-07-29T07:05:55;1.52;;;0.95;;
71475;SDS011;59286;59.274;17.974;2023-07-29T07:08:20;2.40;;;0.82;;
71475;SDS011;59286;59.274;17.974;2023-07-29T07:10:46;3.28;;;0.98;;
71475;SDS011;59286;59.274;17.974;2023-07-29T07:13:12;2.70;;;1.08;;
71475;SDS011;59286;59.274;17.974;2023-07-29T07:15:37;0.70;;;0.60;;
71475;SDS011;59286;59.274;17.974;2023-07-29T07:18:03;1.77;;;1.00;;
71475;SDS011;59286;59.274;17.974;2023-07-29T07:20:28;1.00;;;0.88;;
71475;SDS011;59286;59.274;17.974;2023-07-29T07:22:54;5.28;;;0.90;;
71475;SDS011;59286;59.274;17.974;2023-07-29T07:25:19;1.15;;;0.70;;
71475;SDS011;59286;59.274;17.974;2023-07-29T07:27:44;0.80;;;0.80;;
71475;SDS011;59286;59.274;17.974;2023-07-29T07:30:10;1.65;;;0.90;;
71475;SDS011;59286;59.274;17.974;2023-07-29T07:32:35;1.25;;;0.80;;
71475;SDS011;59286;59.274;17.974;2023-07-29T07:35:01;3.15;;;0.70;;
71475;SDS011;59286;59.274;17.974;2023-07-29T07:37:26;0.95;;;0.70;;
71475;SDS011;59286;59.274;17.974;2023-07-29T07:39:55;1.10;;;0.88;;
71475;SDS011;59286;59.274;17.974;2023-07-29T07:42:20;1.73;;;1.00;;
71475;SDS011;59286;59.274;17.974;2023-07-29T07:44:46;2.78;;;0.80;;
71475;SDS011;59286;59.274;17.974;2023-07-29T07:47:11;2.28;;;0.80;;
71475;SDS011;59286;59.274;17.974;2023-07-29T07:49:36;1.17;;;0.85;;
71475;SDS011;59286;59.274;17.974;2023-07-29T07:52:01;0.88;;;0.60;;
71475;SDS011;59286;59.274;17.974;2023-07-29T07:54:27;1.58;;;0.80;;
71475;SDS011;59286;59.274;17.974;2023-07-29T07:56:52;2.58;;;0.80;;
71475;SDS011;59286;59.274;17.974;2023-07-29T07:59:17;2.67;;;0.75;;
71475;SDS011;59286;59.274;17.974;2023-07-29T08:01:43;1.65;;;0.73;;
71475;SDS011;59286;59.274;17.974;2023-07-29T08:04:08;2.08;;;0.70;;
71475;SDS011;59286;59.274;17.974;2023-07-29T08:06:33;1.83;;;0.73;;
71475;SDS011;59286;59.274;17.974;2023-07-29T08:09:00;0.75;;;0.70;;
71475;SDS011;59286;59.274;17.974;2023-07-29T08:11:25;2.08;;;0.95;;
71475;SDS011;59286;59.274;17.974;2023-07-29T08:13:51;1.80;;;0.63;;
71475;SDS011;59286;59.274;17.974;2023-07-29T08:16:16;1.17;;;0.77;;
71475;SDS011;59286;59.274;17.974;2023-07-29T08:18:42;1.35;;;0.80;;
71475;SDS011;59286;59.274;17.974;2023-07-29T08:21:07;1.52;;;0.73;;
71475;SDS011;59286;59.274;17.974;2023-07-29T08:23:33;1.83;;;0.88;;
71475;SDS011;59286;59.274;17.974;2023-07-29T08:26:01;1.55;;;0.73;;
71475;SDS011;59286;59.274;17.974;2023-07-29T08:28:33;0.88;;;0.65;;
71475;SDS011;59286;59.274;17.974;2023-07-29T08:31:00;1.77;;;0.77;;
71475;SDS011;59286;59.274;17.974;2023-07-29T08:33:25;1.15;;;0.70;;
71475;SDS011;59286;59.274;17.974;2023-07-29T08:35:51;1.85;;;0.80;;
71475;SDS011;59286;59.274;17.974;2023-07-29T08:38:17;2.55;;;1.02;;
71475;SDS011;59286;59.274;17.974;2023-07-29T08:40:50;1.52;;;0.65;;
71475;SDS011;59286;59.274;17.974;2023-07-29T08:43:21;0.60;;;0.55;;
71475;SDS011;59286;59.274;17.974;2023-07-29T08:45:53;2.30;;;0.50;;
71475;SDS011;59286;59.274;17.974;2023-07-29T08:48:19;2.13;;;0.80;;
71475;SDS011;59286;59.274;17.974;2023-07-29T08:50:54;1.77;;;0.70;;
71475;SDS011;59286;59.274;17.974;2023-07-29T08:53:20;1.63;;;0.60;;
71475;SDS011;59286;59.274;17.974;2023-07-29T08:55:46;1.30;;;0.70;;
71475;SDS011;59286;59.274;17.974;2023-07-29T08:58:13;1.35;;;0.60;;
71475;SDS011;59286;59.274;17.974;2023-07-29T09:00:38;2.17;;;0.60;;
71475;SDS011;59286;59.274;17.974;2023-07-29T09:03:05;1.80;;;0.90;;
71475;SDS011;59286;59.274;17.974;2023-07-29T09:05:33;2.17;;;0.70;;
71475;SDS011;59286;59.274;17.974;2023-07-29T09:07:59;1.10;;;0.50;;
71475;SDS011;59286;59.274;17.974;2023-07-29T09:10:28;3.38;;;0.63;;
71475;SDS011;59286;59.274;17.974;2023-07-29T09:12:53;5.30;;;0.82;;
71475;SDS011;59286;59.274;17.974;2023-07-29T09:15:28;0.55;;;0.40;;
71475;SDS011;59286;59.274;17.974;2023-07-29T09:17:55;1.52;;;0.60;;
71475;SDS011;59286;59.274;17.974;2023-07-29T09:20:26;3.35;;;0.50;;
71475;SDS011;59286;59.274;17.974;2023-07-29T09:22:53;0.50;;;0.50;;
71475;SDS011;59286;59.274;17.974;2023-07-29T09:25:29;0.50;;;0.50;;
71475;SDS011;59286;59.274;17.974;2023-07-29T09:30:47;0.95;;;0.50;;
71475;SDS011;59286;59.274;17.974;2023-07-29T09:33:19;1.07;;;0.43;;
71475;SDS011;59286;59.274;17.974;2023-07-29T09:35:45;0.98;;;0.50;;
71475;SDS011;59286;59.274;17.974;2023-07-29T09:38:14;1.88;;;0.65;;
71475;SDS011;59286;59.274;17.974;2023-07-29T09:40:41;1.08;;;0.68;;
71475;SDS011;59286;59.274;17.974;2023-07-29T09:43:14;2.47;;;0.63;;
71475;SDS011;59286;59.274;17.974;2023-07-29T09:45:52;2.75;;;0.52;;
71475;SDS011;59286;59.274;17.974;2023-07-29T09:48:26;0.90;;;0.60;;
71475;SDS011;59286;59.274;17.974;2023-07-29T09:50:53;2.15;;;0.65;;
71475;SDS011;59286;59.274;17.974;2023-07-29T09:53:20;1.77;;;0.60;;
71475;SDS011;59286;59.274;17.974;2023-07-29T09:55:46;0.52;;;0.50;;
71475;SDS011;59286;59.274;17.974;2023-07-29T09:58:19;3.85;;;0.40;;
71475;SDS011;59286;59.274;17.974;2023-07-29T10:03:20;0.90;;;0.40;;
71475;SDS011;59286;59.274;17.974;2023-07-29T10:05:46;2.92;;;0.50;;
71475;SDS011;59286;59.274;17.974;2023-07-29T10:08:18;2.60;;;0.50;;
71475;SDS011;59286;59.274;17.974;2023-07-29T10:10:45;4.00;;;0.70;;
71475;SDS011;59286;59.274;17.974;2023-07-29T10:13:10;1.50;;;0.70;;
71475;SDS011;59286;59.274;17.974;2023-07-29T10:15:37;0.95;;;0.50;;
71475;SDS011;59286;59.274;17.974;2023-07-29T10:18:03;2.22;;;0.70;;
71475;SDS011;59286;59.274;17.974;2023-07-29T10:20:32;3.13;;;0.60;;
71475;SDS011;59286;59.274;17.974;2023-07-29T10:23:02;5.15;;;0.50;;
71475;SDS011;59286;59.274;17.974;2023-07-29T10:28:31;5.53;;;0.70;;
71475;SDS011;59286;59.274;17.974;2023-07-29T10:30:58;1.42;;;0.65;;
71475;SDS011;59286;59.274;17.974;2023-07-29T10:33:24;4.88;;;0.50;;
71475;SDS011;59286;59.274;17.974;2023-07-29T10:35:50;1.15;;;0.50;;
71475;SDS011;59286;59.274;17.974;2023-07-29T10:38:17;2.42;;;0.70;;
71475;SDS011;59286;59.274;17.974;2023-07-29T10:40:47;1.75;;;0.57;;
71475;SDS011;59286;59.274;17.974;2023-07-29T10:43:19;0.80;;;0.40;;
71475;SDS011;59286;59.274;17.974;2023-07-29T10:45:50;3.22;;;0.60;;
71475;SDS011;59286;59.274;17.974;2023-07-29T10:56:29;3.15;;;0.55;;
71475;SDS011;59286;59.274;17.974;2023-07-29T11:01:38;1.42;;;0.60;;
71475;SDS011;59286;59.274;17.974;2023-07-29T11:07:01;1.50;;;0.50;;
71475;SDS011;59286;59.274;17.974;2023-07-29T11:15:16;2.33;;;0.60;;
71475;SDS011;59286;59.274;17.974;2023-07-29T11:18:03;1.27;;;0.50;;
71475;SDS011;59286;59.274;17.974;2023-07-29T11:20:36;1.27;;;0.60;;
71475;SDS011;59286;59.274;17.974;2023-07-29T11:23:07;1.92;;;0.63;;
71475;SDS011;59286;59.274;17.974;2023-07-29T11:25:54;1.17;;;0.63;;
71475;SDS011;59286;59.274;17.974;2023-07-29T11:28:39;3.03;;;0.70;;
71475;SDS011;59286;59.274;17.974;2023-07-29T11:31:05;1.50;;;0.50;;
71475;SDS011;59286;59.274;17.974;2023-07-29T11:36:45;0.55;;;0.52;;
71475;SDS011;59286;59.274;17.974;2023-07-29T11:39:11;0.88;;;0.60;;
71475;SDS011;59286;59.274;17.974;2023-07-29T11:41:39;1.23;;;0.60;;
71475;SDS011;59286;59.274;17.974;2023-07-29T11:44:20;0.38;;;0.32;;
71475;SDS011;59286;59.274;17.974;2023-07-29T11:46:45;3.03;;;0.70;;
71475;SDS011;59286;59.274;17.974;2023-07-29T11:49:13;1.25;;;0.60;;
71475;SDS011;59286;59.274;17.974;2023-07-29T11:51:59;1.38;;;0.70;;
71475;SDS011;59286;59.274;17.974;2023-07-29T11:54:26;1.85;;;0.70;;
71475;SDS011;59286;59.274;17.974;2023-07-29T11:56:51;1.40;;;0.50;;
71475;SDS011;59286;59.274;17.974;2023-07-29T11:59:17;1.27;;;0.40;;
71475;SDS011;59286;59.274;17.974;2023-07-29T12:01:48;2.30;;;0.57;;
71475;SDS011;59286;59.274;17.974;2023-07-29T12:04:17;1.00;;;0.52;;
71475;SDS011;59286;59.274;17.974;2023-07-29T12:06:45;1.98;;;0.70;;
71475;SDS011;59286;59.274;17.974;2023-07-29T12:11:48;1.20;;;0.50;;
71475;SDS011;59286;59.274;17.974;2023-07-29T12:14:17;0.68;;;0.50;;
71475;SDS011;59286;59.274;17.974;2023-07-29T12:16:47;0.93;;;0.60;;
71475;SDS011;59286;59.274;17.974;2023-07-29T12:19:14;0.73;;;0.50;;
71475;SDS011;59286;59.274;17.974;2023-07-29T12:21:42;1.10;;;0.60;;
71475;SDS011;59286;59.274;17.974;2023-07-29T12:24:09;2.13;;;0.70;;
71475;SDS011;59286;59.274;17.974;2023-07-29T12:26:37;0.75;;;0.50;;
71475;SDS011;59286;59.274;17.974;2023-07-29T12:29:17;1.45;;;0.60;;
71475;SDS011;59286;59.274;17.974;2023-07-29T12:32:00;3.63;;;0.75;;
71475;SDS011;59286;59.274;17.974;2023-07-29T12:34:28;0.93;;;0.55;;
71475;SDS011;59286;59.274;17.974;2023-07-29T12:36:55;2.22;;;0.63;;
71475;SDS011;59286;59.274;17.974;2023-07-29T12:39:28;1.00;;;0.60;;
71475;SDS011;59286;59.274;17.974;2023-07-29T12:41:55;0.63;;;0.50;;
71475;SDS011;59286;59.274;17.974;2023-07-29T12:44:25;2.10;;;0.50;;
71475;SDS011;59286;59.274;17.974;2023-07-29T12:46:54;0.82;;;0.40;;
71475;SDS011;59286;59.274;17.974;2023-07-29T12:49:20;0.70;;;0.40;;
71475;SDS011;59286;59.274;17.974;2023-07-29T12:51:45;2.58;;;0.68;;
71475;SDS011;59286;59.274;17.974;2023-07-29T12:54:11;2.05;;;0.55;;
71475;SDS011;59286;59.274;17.974;2023-07-29T12:57:00;1.17;;;0.60;;
71475;SDS011;59286;59.274;17.974;2023-07-29T12:59:31;0.90;;;0.50;;
71475;SDS011;59286;59.274;17.974;2023-07-29T13:01:57;0.73;;;0.52;;
71475;SDS011;59286;59.274;17.974;2023-07-29T13:04:25;2.00;;;0.40;;
71475;SDS011;59286;59.274;17.974;2023-07-29T13:06:50;1.00;;;0.60;;
71475;SDS011;59286;59.274;17.974;2023-07-29T13:09:16;8.25;;;2.53;;
71475;SDS011;59286;59.274;17.974;2023-07-29T13:11:41;9.30;;;2.30;;
71475;SDS011;59286;59.274;17.974;2023-07-29T13:14:06;2.58;;;1.08;;
71475;SDS011;59286;59.274;17.974;2023-07-29T13:16:32;1.33;;;0.80;;
71475;SDS011;59286;59.274;17.974;2023-07-29T13:18:57;1.13;;;0.50;;
71475;SDS011;59286;59.274;17.974;2023-07-29T13:21:23;0.95;;;0.60;;
71475;SDS011;59286;59.274;17.974;2023-07-29T13:23:48;3.20;;;0.65;;
71475;SDS011;59286;59.274;17.974;2023-07-29T13:26:14;1.38;;;0.60;;
71475;SDS011;59286;59.274;17.974;2023-07-29T13:28:39;3.63;;;0.88;;
71475;SDS011;59286;59.274;17.974;2023-07-29T13:31:04;1.85;;;0.60;;
71475;SDS011;59286;59.274;17.974;2023-07-29T13:33:30;0.68;;;0.65;;
71475;SDS011;59286;59.274;17.974;2023-07-29T13:35:59;1.40;;;0.55;;
71475;SDS011;59286;59.274;17.974;2023-07-29T13:38:25;2.67;;;0.70;;
71475;SDS011;59286;59.274;17.974;2023-07-29T13:40:50;1.20;;;0.70;;
71475;SDS011;59286;59.274;17.974;2023-07-29T13:43:16;2.08;;;0.75;;
71475;SDS011;59286;59.274;17.974;2023-07-29T13:45:41;1.52;;;0.57;;
71475;SDS011;59286;59.274;17.974;2023-07-29T13:48:06;0.80;;;0.52;;
71475;SDS011;59286;59.274;17.974;2023-07-29T13:50:32;0.73;;;0.52;;
71475;SDS011;59286;59.274;17.974;2023-07-29T13:52:57;1.98;;;0.70;;
71475;SDS011;59286;59.274;17.974;2023-07-29T13:55:22;0.45;;;0.45;;
71475;SDS011;59286;59.274;17.974;2023-07-29T13:57:48;2.15;;;1.13;;
71475;SDS011;59286;59.274;17.974;2023-07-29T14:00:13;4.03;;;1.15;;
71475;SDS011;59286;59.274;17.974;2023-07-29T14:02:39;3.55;;;1.30;;
71475;SDS011;59286;59.274;17.974;2023-07-29T14:05:05;3.67;;;1.02;;
71475;SDS011;59286;59.274;17.974;2023-07-29T14:07:32;1.83;;;0.70;;
71475;SDS011;59286;59.274;17.974;2023-07-29T14:09:57;1.40;;;0.85;;
71475;SDS011;59286;59.274;17.974;2023-07-29T14:12:23;1.75;;;1.15;;
71475;SDS011;59286;59.274;17.974;2023-07-29T14:14:51;0.93;;;0.70;;
71475;SDS011;59286;59.274;17.974;2023-07-29T14:17:16;3.13;;;0.88;;
71475;SDS011;59286;59.274;17.974;2023-07-29T14:19:42;1.38;;;0.90;;
71475;SDS011;59286;59.274;17.974;2023-07-29T14:22:07;2.70;;;0.80;;
71475;SDS011;59286;59.274;17.974;2023-07-29T14:24:32;2.88;;;0.82;;
71475;SDS011;59286;59.274;17.974;2023-07-29T14:26:58;2.42;;;0.85;;
71475;SDS011;59286;59.274;17.974;2023-07-29T14:29:23;0.60;;;0.60;;
71475;SDS011;59286;59.274;17.974;2023-07-29T14:31:48;2.97;;;0.80;;
71475;SDS011;59286;59.274;17.974;2023-07-29T14:34:14;3.50;;;0.85;;
71475;SDS011;59286;59.274;17.974;2023-07-29T14:36:39;0.95;;;0.70;;
71475;SDS011;59286;59.274;17.974;2023-07-29T14:39:05;1.10;;;0.60;;
71475;SDS011;59286;59.274;17.974;2023-07-29T14:41:30;1.92;;;0.85;;
71475;SDS011;59286;59.274;17.974;2023-07-29T14:43:56;3.85;;;0.70;;
71475;SDS011;59286;59.274;17.974;2023-07-29T14:46:22;2.10;;;0.80;;
71475;SDS011;59286;59.274;17.974;2023-07-29T14:48:47;1.42;;;0.75;;
71475;SDS011;59286;59.274;17.974;2023-07-29T14:51:13;1.08;;;0.70;;
71475;SDS011;59286;59.274;17.974;2023-07-29T14:53:42;0.75;;;0.70;;
71475;SDS011;59286;59.274;17.974;2023-07-29T14:56:08;4.75;;;0.90;;
71475;SDS011;59286;59.274;17.974;2023-07-29T14:58:33;1.38;;;1.10;;
71475;SDS011;59286;59.274;17.974;2023-07-29T15:00:59;0.82;;;0.70;;
71475;SDS011;59286;59.274;17.974;2023-07-29T15:03:24;3.17;;;0.95;;
71475;SDS011;59286;59.274;17.974;2023-07-29T15:05:50;3.38;;;0.82;;
71475;SDS011;59286;59.274;17.974;2023-07-29T15:08:16;1.63;;;0.80;;